sensor_id;sensor_type;location;lat;lon;timestamp;P1;durP1;ratioP1;P2;durP2;ratioP2
76576;SDS011;65441;44.748;37.600;2023-01-24T00:01:52;11.10;;;4.20;;
76576;SDS011;65441;44.748;37.600;2023-01-24T00:04:44;12.98;;;4.55;;
76576;SDS011;65441;44.748;37.600;2023-01-24T00:13:00;9.95;;;3.70;;
76576;SDS011;65441;44.748;37.600;2023-01-24T00:16:00;10.38;;;3.60;;
76576;SDS011;65441;44.748;37.600;2023-01-24T00:18:32;12.45;;;3.78;;
76576;SDS011;65441;44.748;37.600;2023-01-24T00:21:37;11.90;;;3.90;;
76576;SDS011;65441;44.748;37.600;2023-01-24T00:26:53;11.85;;;3.63;;
76576;SDS011;65441;44.748;37.600;2023-01-24T00:29:24;10.30;;;3.60;;
76576;SDS011;65441;44.748;37.600;2023-01-24T00:31:54;10.70;;;3.75;;
76576;SDS011;65441;44.748;37.600;2023-01-24T00:34:25;11.00;;;3.33;;
76576;SDS011;65441;44.748;37.600;2023-01-24T00:37:45;8.65;;;3.45;;
76576;SDS011;65441;44.748;37.600;2023-01-24T00:40:12;9.93;;;3.65;;
76576;SDS011;65441;44.748;37.600;2023-01-24T00:42:46;11.35;;;3.83;;
76576;SDS011;65441;44.748;37.600;2023-01-24T00:45:19;9.98;;;3.25;;
76576;SDS011;65441;44.748;37.600;2023-01-24T00:47:53;10.30;;;3.38;;
76576;SDS011;65441;44.748;37.600;2023-01-24T00:50:27;14.00;;;4.07;;
76576;SDS011;65441;44.748;37.600;2023-01-24T00:53:31;10.27;;;4.25;;
76576;SDS011;65441;44.748;37.600;2023-01-24T00:55:56;10.98;;;3.40;;
76576;SDS011;65441;44.748;37.600;2023-01-24T00:58:38;11.10;;;3.92;;
76576;SDS011;65441;44.748;37.600;2023-01-24T01:01:29;13.02;;;3.67;;
76576;SDS011;65441;44.748;37.600;2023-01-24T01:04:02;10.25;;;3.50;;
76576;SDS011;65441;44.748;37.600;2023-01-24T01:06:31;13.05;;;3.28;;
76576;SDS011;65441;44.748;37.600;2023-01-24T01:09:05;12.32;;;3.80;;
76576;SDS011;65441;44.748;37.600;2023-01-24T01:11:37;9.93;;;3.47;;
76576;SDS011;65441;44.748;37.600;2023-01-24T01:14:14;9.85;;;3.90;;
76576;SDS011;65441;44.748;37.600;2023-01-24T01:16:42;10.63;;;3.65;;
76576;SDS011;65441;44.748;37.600;2023-01-24T01:19:12;11.73;;;4.00;;
76576;SDS011;65441;44.748;37.600;2023-01-24T01:21:43;10.98;;;3.85;;
76576;SDS011;65441;44.748;37.600;2023-01-24T01:24:28;11.48;;;3.20;;
76576;SDS011;65441;44.748;37.600;2023-01-24T01:26:58;10.00;;;3.38;;
76576;SDS011;65441;44.748;37.600;2023-01-24T01:29:28;14.13;;;3.80;;
76576;SDS011;65441;44.748;37.600;2023-01-24T01:31:59;10.63;;;3.30;;
76576;SDS011;65441;44.748;37.600;2023-01-24T01:34:28;10.88;;;3.65;;
76576;SDS011;65441;44.748;37.600;2023-01-24T01:37:03;9.63;;;3.50;;
76576;SDS011;65441;44.748;37.600;2023-01-24T01:39:32;9.32;;;3.53;;
76576;SDS011;65441;44.748;37.600;2023-01-24T01:42:03;8.02;;;3.08;;
76576;SDS011;65441;44.748;37.600;2023-01-24T01:47:18;11.85;;;3.65;;
76576;SDS011;65441;44.748;37.600;2023-01-24T01:49:55;8.93;;;3.30;;
76576;SDS011;65441;44.748;37.600;2023-01-24T01:52:29;10.48;;;3.30;;
76576;SDS011;65441;44.748;37.600;2023-01-24T01:55:05;10.18;;;3.70;;
76576;SDS011;65441;44.748;37.600;2023-01-24T01:57:39;13.98;;;3.92;;
76576;SDS011;65441;44.748;37.600;2023-01-24T02:00:09;10.25;;;3.38;;
76576;SDS011;65441;44.748;37.600;2023-01-24T02:02:42;10.00;;;3.28;;
76576;SDS011;65441;44.748;37.600;2023-01-24T02:05:16;12.45;;;4.00;;
76576;SDS011;65441;44.748;37.600;2023-01-24T02:07:50;10.77;;;3.72;;
76576;SDS011;65441;44.748;37.600;2023-01-24T02:10:24;12.20;;;3.55;;
76576;SDS011;65441;44.748;37.600;2023-01-24T02:13:20;10.85;;;3.75;;
76576;SDS011;65441;44.748;37.600;2023-01-24T02:15:49;9.10;;;3.08;;
76576;SDS011;65441;44.748;37.600;2023-01-24T02:18:31;11.13;;;3.72;;
76576;SDS011;65441;44.748;37.600;2023-01-24T02:21:05;12.20;;;3.72;;
76576;SDS011;65441;44.748;37.600;2023-01-24T02:23:39;9.65;;;3.20;;
76576;SDS011;65441;44.748;37.600;2023-01-24T02:26:18;11.50;;;4.00;;
76576;SDS011;65441;44.748;37.600;2023-01-24T02:28:50;10.60;;;3.67;;
76576;SDS011;65441;44.748;37.600;2023-01-24T02:31:23;12.23;;;4.10;;
76576;SDS011;65441;44.748;37.600;2023-01-24T02:34:12;11.57;;;4.53;;
76576;SDS011;65441;44.748;37.600;2023-01-24T02:36:43;11.10;;;3.80;;
76576;SDS011;65441;44.748;37.600;2023-01-24T02:39:14;10.10;;;3.22;;
76576;SDS011;65441;44.748;37.600;2023-01-24T02:41:53;11.73;;;3.30;;
76576;SDS011;65441;44.748;37.600;2023-01-24T02:44:28;9.85;;;4.03;;
76576;SDS011;65441;44.748;37.600;2023-01-24T02:47:00;9.68;;;3.45;;
76576;SDS011;65441;44.748;37.600;2023-01-24T02:49:31;9.70;;;3.53;;
76576;SDS011;65441;44.748;37.600;2023-01-24T02:52:00;12.43;;;3.67;;
76576;SDS011;65441;44.748;37.600;2023-01-24T02:54:52;11.52;;;4.22;;
76576;SDS011;65441;44.748;37.600;2023-01-24T02:57:31;9.75;;;3.28;;
76576;SDS011;65441;44.748;37.600;2023-01-24T03:00:21;12.93;;;3.60;;
76576;SDS011;65441;44.748;37.600;2023-01-24T03:02:52;10.35;;;3.55;;
76576;SDS011;65441;44.748;37.600;2023-01-24T03:05:22;11.98;;;3.95;;
76576;SDS011;65441;44.748;37.600;2023-01-24T03:07:50;13.82;;;3.88;;
76576;SDS011;65441;44.748;37.600;2023-01-24T03:10:22;12.82;;;4.00;;
76576;SDS011;65441;44.748;37.600;2023-01-24T03:12:57;12.25;;;4.18;;
76576;SDS011;65441;44.748;37.600;2023-01-24T03:15:48;11.30;;;4.03;;
76576;SDS011;65441;44.748;37.600;2023-01-24T03:18:34;11.35;;;4.32;;
76576;SDS011;65441;44.748;37.600;2023-01-24T03:24:07;12.73;;;3.95;;
76576;SDS011;65441;44.748;37.600;2023-01-24T03:26:56;14.73;;;4.53;;
76576;SDS011;65441;44.748;37.600;2023-01-24T03:29:47;9.90;;;3.80;;
76576;SDS011;65441;44.748;37.600;2023-01-24T03:32:35;11.18;;;3.40;;
76576;SDS011;65441;44.748;37.600;2023-01-24T03:35:22;11.98;;;3.60;;
76576;SDS011;65441;44.748;37.600;2023-01-24T03:37:52;11.32;;;3.72;;
76576;SDS011;65441;44.748;37.600;2023-01-24T03:40:38;12.45;;;3.90;;
76576;SDS011;65441;44.748;37.600;2023-01-24T03:43:11;10.73;;;4.25;;
76576;SDS011;65441;44.748;37.600;2023-01-24T03:45:45;12.07;;;4.07;;
76576;SDS011;65441;44.748;37.600;2023-01-24T03:48:33;10.88;;;3.70;;
76576;SDS011;65441;44.748;37.600;2023-01-24T03:51:05;16.15;;;4.63;;
76576;SDS011;65441;44.748;37.600;2023-01-24T03:54:05;12.05;;;4.13;;
76576;SDS011;65441;44.748;37.600;2023-01-24T03:56:58;14.77;;;4.55;;
76576;SDS011;65441;44.748;37.600;2023-01-24T03:59:29;15.57;;;4.68;;
76576;SDS011;65441;44.748;37.600;2023-01-24T04:02:07;14.45;;;4.15;;
76576;SDS011;65441;44.748;37.600;2023-01-24T04:04:40;11.15;;;3.88;;
76576;SDS011;65441;44.748;37.600;2023-01-24T04:07:27;18.20;;;4.32;;
76576;SDS011;65441;44.748;37.600;2023-01-24T04:10:18;10.23;;;3.60;;
76576;SDS011;65441;44.748;37.600;2023-01-24T04:13:23;9.40;;;3.58;;
76576;SDS011;65441;44.748;37.600;2023-01-24T04:16:15;13.43;;;3.90;;
76576;SDS011;65441;44.748;37.600;2023-01-24T04:18:57;12.10;;;4.28;;
76576;SDS011;65441;44.748;37.600;2023-01-24T04:24:14;16.20;;;5.28;;
76576;SDS011;65441;44.748;37.600;2023-01-24T04:29:51;15.80;;;4.60;;
76576;SDS011;65441;44.748;37.600;2023-01-24T04:32:21;12.10;;;4.57;;
76576;SDS011;65441;44.748;37.600;2023-01-24T04:38:01;13.00;;;4.57;;
76576;SDS011;65441;44.748;37.600;2023-01-24T04:41:04;16.67;;;4.45;;
76576;SDS011;65441;44.748;37.600;2023-01-24T04:43:41;19.65;;;4.97;;
76576;SDS011;65441;44.748;37.600;2023-01-24T04:46:12;17.80;;;4.60;;
76576;SDS011;65441;44.748;37.600;2023-01-24T04:48:52;11.05;;;3.88;;
76576;SDS011;65441;44.748;37.600;2023-01-24T04:54:14;15.40;;;4.68;;
76576;SDS011;65441;44.748;37.600;2023-01-24T04:56:50;18.35;;;4.50;;
76576;SDS011;65441;44.748;37.600;2023-01-24T04:59:25;16.52;;;4.70;;
76576;SDS011;65441;44.748;37.600;2023-01-24T05:01:56;13.80;;;4.97;;
76576;SDS011;65441;44.748;37.600;2023-01-24T05:04:40;16.08;;;4.75;;
76576;SDS011;65441;44.748;37.600;2023-01-24T05:07:14;16.35;;;5.10;;
76576;SDS011;65441;44.748;37.600;2023-01-24T05:09:56;20.42;;;4.95;;
76576;SDS011;65441;44.748;37.600;2023-01-24T05:12:49;14.23;;;4.22;;
76576;SDS011;65441;44.748;37.600;2023-01-24T05:15:26;16.33;;;4.38;;
76576;SDS011;65441;44.748;37.600;2023-01-24T05:18:20;12.75;;;4.85;;
76576;SDS011;65441;44.748;37.600;2023-01-24T05:21:46;13.52;;;4.30;;
76576;SDS011;65441;44.748;37.600;2023-01-24T05:24:08;21.58;;;6.15;;
76576;SDS011;65441;44.748;37.600;2023-01-24T05:27:17;21.27;;;6.50;;
76576;SDS011;65441;44.748;37.600;2023-01-24T05:30:04;15.95;;;5.18;;
76576;SDS011;65441;44.748;37.600;2023-01-24T05:32:38;15.45;;;4.82;;
76576;SDS011;65441;44.748;37.600;2023-01-24T05:37:52;17.30;;;4.43;;
76576;SDS011;65441;44.748;37.600;2023-01-24T05:40:29;14.40;;;5.18;;
76576;SDS011;65441;44.748;37.600;2023-01-24T05:42:59;16.33;;;4.97;;
76576;SDS011;65441;44.748;37.600;2023-01-24T05:45:30;19.27;;;5.40;;
76576;SDS011;65441;44.748;37.600;2023-01-24T05:48:46;18.52;;;4.72;;
76576;SDS011;65441;44.748;37.600;2023-01-24T05:51:18;19.85;;;4.60;;
76576;SDS011;65441;44.748;37.600;2023-01-24T05:53:48;16.50;;;4.97;;
76576;SDS011;65441;44.748;37.600;2023-01-24T05:56:39;15.73;;;5.63;;
76576;SDS011;65441;44.748;37.600;2023-01-24T05:59:16;19.20;;;5.00;;
76576;SDS011;65441;44.748;37.600;2023-01-24T06:01:46;25.10;;;5.82;;
76576;SDS011;65441;44.748;37.600;2023-01-24T06:04:16;15.73;;;5.65;;
76576;SDS011;65441;44.748;37.600;2023-01-24T06:06:45;20.42;;;5.15;;
76576;SDS011;65441;44.748;37.600;2023-01-24T06:09:16;14.50;;;5.15;;
76576;SDS011;65441;44.748;37.600;2023-01-24T06:11:52;20.88;;;4.85;;
76576;SDS011;65441;44.748;37.600;2023-01-24T06:14:21;22.35;;;6.43;;
76576;SDS011;65441;44.748;37.600;2023-01-24T06:16:53;17.23;;;5.28;;
76576;SDS011;65441;44.748;37.600;2023-01-24T06:19:24;15.18;;;5.47;;
76576;SDS011;65441;44.748;37.600;2023-01-24T06:21:55;14.18;;;5.78;;
76576;SDS011;65441;44.748;37.600;2023-01-24T06:24:32;14.68;;;5.43;;
76576;SDS011;65441;44.748;37.600;2023-01-24T06:27:18;16.67;;;5.38;;
76576;SDS011;65441;44.748;37.600;2023-01-24T06:29:50;21.23;;;5.05;;
76576;SDS011;65441;44.748;37.600;2023-01-24T06:32:22;15.50;;;5.22;;
76576;SDS011;65441;44.748;37.600;2023-01-24T06:35:12;16.33;;;5.53;;
76576;SDS011;65441;44.748;37.600;2023-01-24T06:37:48;12.70;;;4.93;;
76576;SDS011;65441;44.748;37.600;2023-01-24T06:40:21;19.65;;;5.75;;
76576;SDS011;65441;44.748;37.600;2023-01-24T06:42:53;27.05;;;8.25;;
76576;SDS011;65441;44.748;37.600;2023-01-24T06:45:24;28.70;;;8.13;;
76576;SDS011;65441;44.748;37.600;2023-01-24T06:47:53;25.95;;;8.57;;
76576;SDS011;65441;44.748;37.600;2023-01-24T06:50:24;24.45;;;7.85;;
76576;SDS011;65441;44.748;37.600;2023-01-24T06:52:55;24.13;;;7.97;;
76576;SDS011;65441;44.748;37.600;2023-01-24T06:55:25;22.40;;;8.30;;
76576;SDS011;65441;44.748;37.600;2023-01-24T06:57:55;23.55;;;8.35;;
76576;SDS011;65441;44.748;37.600;2023-01-24T07:00:25;24.70;;;8.38;;
76576;SDS011;65441;44.748;37.600;2023-01-24T07:02:57;21.55;;;7.55;;
76576;SDS011;65441;44.748;37.600;2023-01-24T07:05:26;18.90;;;6.43;;
76576;SDS011;65441;44.748;37.600;2023-01-24T07:07:55;14.75;;;5.25;;
76576;SDS011;65441;44.748;37.600;2023-01-24T07:10:24;14.93;;;5.95;;
76576;SDS011;65441;44.748;37.600;2023-01-24T07:12:53;15.75;;;6.13;;
76576;SDS011;65441;44.748;37.600;2023-01-24T07:15:24;16.60;;;6.07;;
76576;SDS011;65441;44.748;37.600;2023-01-24T07:17:53;16.10;;;5.32;;
76576;SDS011;65441;44.748;37.600;2023-01-24T07:20:22;16.02;;;5.03;;
76576;SDS011;65441;44.748;37.600;2023-01-24T07:22:52;15.35;;;5.35;;
76576;SDS011;65441;44.748;37.600;2023-01-24T07:25:22;15.60;;;5.35;;
76576;SDS011;65441;44.748;37.600;2023-01-24T07:27:53;17.20;;;5.70;;
76576;SDS011;65441;44.748;37.600;2023-01-24T07:30:23;17.40;;;6.03;;
76576;SDS011;65441;44.748;37.600;2023-01-24T07:32:54;14.52;;;5.45;;
76576;SDS011;65441;44.748;37.600;2023-01-24T07:35:23;17.55;;;6.00;;
76576;SDS011;65441;44.748;37.600;2023-01-24T07:37:52;14.40;;;5.13;;
76576;SDS011;65441;44.748;37.600;2023-01-24T07:40:22;13.27;;;5.30;;
76576;SDS011;65441;44.748;37.600;2023-01-24T07:42:51;18.88;;;5.60;;
76576;SDS011;65441;44.748;37.600;2023-01-24T07:45:21;16.38;;;6.35;;
76576;SDS011;65441;44.748;37.600;2023-01-24T07:47:53;16.83;;;6.15;;
76576;SDS011;65441;44.748;37.600;2023-01-24T07:50:23;14.13;;;4.85;;
76576;SDS011;65441;44.748;37.600;2023-01-24T07:52:53;15.50;;;5.82;;
76576;SDS011;65441;44.748;37.600;2023-01-24T07:55:22;16.60;;;5.88;;
76576;SDS011;65441;44.748;37.600;2023-01-24T07:57:51;14.40;;;4.85;;
76576;SDS011;65441;44.748;37.600;2023-01-24T08:00:26;13.52;;;5.32;;
76576;SDS011;65441;44.748;37.600;2023-01-24T08:02:55;14.98;;;5.35;;
76576;SDS011;65441;44.748;37.600;2023-01-24T08:05:24;14.82;;;5.43;;
76576;SDS011;65441;44.748;37.600;2023-01-24T08:07:53;17.58;;;5.40;;
76576;SDS011;65441;44.748;37.600;2023-01-24T08:10:22;16.95;;;5.55;;
76576;SDS011;65441;44.748;37.600;2023-01-24T08:12:51;12.95;;;5.20;;
76576;SDS011;65441;44.748;37.600;2023-01-24T08:15:20;11.93;;;4.47;;
76576;SDS011;65441;44.748;37.600;2023-01-24T08:17:50;15.15;;;5.93;;
76576;SDS011;65441;44.748;37.600;2023-01-24T08:20:20;14.27;;;5.00;;
76576;SDS011;65441;44.748;37.600;2023-01-24T08:22:48;15.25;;;5.63;;
76576;SDS011;65441;44.748;37.600;2023-01-24T08:25:22;14.55;;;6.10;;
76576;SDS011;65441;44.748;37.600;2023-01-24T08:27:51;18.25;;;5.88;;
76576;SDS011;65441;44.748;37.600;2023-01-24T08:30:20;16.13;;;5.32;;
76576;SDS011;65441;44.748;37.600;2023-01-24T08:32:59;14.25;;;5.25;;
76576;SDS011;65441;44.748;37.600;2023-01-24T08:35:28;15.40;;;5.78;;
76576;SDS011;65441;44.748;37.600;2023-01-24T08:37:57;13.88;;;5.50;;
76576;SDS011;65441;44.748;37.600;2023-01-24T08:40:26;15.25;;;5.28;;
76576;SDS011;65441;44.748;37.600;2023-01-24T08:42:58;11.95;;;5.18;;
76576;SDS011;65441;44.748;37.600;2023-01-24T08:45:28;14.80;;;5.53;;
76576;SDS011;65441;44.748;37.600;2023-01-24T08:47:59;13.10;;;5.05;;
76576;SDS011;65441;44.748;37.600;2023-01-24T08:50:28;15.77;;;5.20;;
76576;SDS011;65441;44.748;37.600;2023-01-24T08:52:56;16.80;;;5.68;;
76576;SDS011;65441;44.748;37.600;2023-01-24T08:55:25;11.80;;;5.07;;
76576;SDS011;65441;44.748;37.600;2023-01-24T08:57:58;15.02;;;5.10;;
76576;SDS011;65441;44.748;37.600;2023-01-24T09:00:28;15.50;;;5.90;;
76576;SDS011;65441;44.748;37.600;2023-01-24T09:02:59;16.98;;;5.25;;
76576;SDS011;65441;44.748;37.600;2023-01-24T09:05:28;13.93;;;4.72;;
76576;SDS011;65441;44.748;37.600;2023-01-24T09:07:57;13.70;;;5.82;;
76576;SDS011;65441;44.748;37.600;2023-01-24T09:10:27;16.85;;;5.50;;
76576;SDS011;65441;44.748;37.600;2023-01-24T09:12:56;12.95;;;5.53;;
76576;SDS011;65441;44.748;37.600;2023-01-24T09:15:24;15.93;;;5.53;;
76576;SDS011;65441;44.748;37.600;2023-01-24T09:17:53;14.43;;;5.18;;
76576;SDS011;65441;44.748;37.600;2023-01-24T09:20:23;13.73;;;6.15;;
76576;SDS011;65441;44.748;37.600;2023-01-24T09:22:52;15.35;;;5.72;;
76576;SDS011;65441;44.748;37.600;2023-01-24T09:25:21;13.25;;;5.50;;
76576;SDS011;65441;44.748;37.600;2023-01-24T09:27:52;12.18;;;4.43;;
76576;SDS011;65441;44.748;37.600;2023-01-24T09:30:21;16.17;;;5.30;;
76576;SDS011;65441;44.748;37.600;2023-01-24T09:32:50;15.00;;;5.05;;
76576;SDS011;65441;44.748;37.600;2023-01-24T09:35:19;15.55;;;5.18;;
76576;SDS011;65441;44.748;37.600;2023-01-24T09:37:50;13.02;;;5.75;;
76576;SDS011;65441;44.748;37.600;2023-01-24T09:40:20;16.23;;;5.18;;
76576;SDS011;65441;44.748;37.600;2023-01-24T09:42:54;12.70;;;5.50;;
76576;SDS011;65441;44.748;37.600;2023-01-24T09:45:30;13.18;;;4.72;;
76576;SDS011;65441;44.748;37.600;2023-01-24T09:48:02;13.43;;;4.57;;
76576;SDS011;65441;44.748;37.600;2023-01-24T09:50:34;15.10;;;4.57;;
76576;SDS011;65441;44.748;37.600;2023-01-24T09:53:12;12.82;;;3.72;;
76576;SDS011;65441;44.748;37.600;2023-01-24T09:55:45;8.60;;;3.10;;
76576;SDS011;65441;44.748;37.600;2023-01-24T09:58:21;12.77;;;5.20;;
76576;SDS011;65441;44.748;37.600;2023-01-24T10:00:55;13.50;;;5.40;;
76576;SDS011;65441;44.748;37.600;2023-01-24T10:03:26;14.63;;;5.20;;
76576;SDS011;65441;44.748;37.600;2023-01-24T10:05:57;24.77;;;8.98;;
76576;SDS011;65441;44.748;37.600;2023-01-24T10:08:32;19.27;;;8.73;;
76576;SDS011;65441;44.748;37.600;2023-01-24T10:11:07;13.27;;;5.35;;
76576;SDS011;65441;44.748;37.600;2023-01-24T10:19:55;13.20;;;4.78;;
76576;SDS011;65441;44.748;37.600;2023-01-24T10:22:43;20.00;;;8.45;;
76576;SDS011;65441;44.748;37.600;2023-01-24T10:25:33;11.18;;;4.38;;
76576;SDS011;65441;44.748;37.600;2023-01-24T10:28:16;13.27;;;5.50;;
76576;SDS011;65441;44.748;37.600;2023-01-24T10:30:50;14.93;;;6.90;;
76576;SDS011;65441;44.748;37.600;2023-01-24T10:33:26;13.60;;;5.03;;
76576;SDS011;65441;44.748;37.600;2023-01-24T10:35:59;13.18;;;4.97;;
76576;SDS011;65441;44.748;37.600;2023-01-24T10:38:32;14.23;;;5.38;;
76576;SDS011;65441;44.748;37.600;2023-01-24T10:41:11;16.77;;;8.10;;
76576;SDS011;65441;44.748;37.600;2023-01-24T10:43:44;16.20;;;8.27;;
76576;SDS011;65441;44.748;37.600;2023-01-24T10:46:23;15.65;;;5.97;;
76576;SDS011;65441;44.748;37.600;2023-01-24T10:49:02;16.27;;;5.75;;
76576;SDS011;65441;44.748;37.600;2023-01-24T10:51:35;15.45;;;5.85;;
76576;SDS011;65441;44.748;37.600;2023-01-24T10:54:04;13.10;;;5.57;;
76576;SDS011;65441;44.748;37.600;2023-01-24T10:56:50;15.55;;;5.35;;
76576;SDS011;65441;44.748;37.600;2023-01-24T10:59:19;13.35;;;5.03;;
76576;SDS011;65441;44.748;37.600;2023-01-24T11:01:48;14.68;;;6.20;;
76576;SDS011;65441;44.748;37.600;2023-01-24T11:04:19;13.90;;;6.05;;
76576;SDS011;65441;44.748;37.600;2023-01-24T11:06:50;14.90;;;6.10;;
76576;SDS011;65441;44.748;37.600;2023-01-24T11:09:20;13.60;;;6.47;;
76576;SDS011;65441;44.748;37.600;2023-01-24T11:11:53;15.20;;;5.57;;
76576;SDS011;65441;44.748;37.600;2023-01-24T11:14:23;14.82;;;5.45;;
76576;SDS011;65441;44.748;37.600;2023-01-24T11:16:54;16.30;;;5.60;;
76576;SDS011;65441;44.748;37.600;2023-01-24T11:19:25;15.02;;;5.45;;
76576;SDS011;65441;44.748;37.600;2023-01-24T11:21:56;13.77;;;5.43;;
76576;SDS011;65441;44.748;37.600;2023-01-24T11:24:26;14.82;;;5.65;;
76576;SDS011;65441;44.748;37.600;2023-01-24T11:27:00;17.23;;;7.15;;
76576;SDS011;65441;44.748;37.600;2023-01-24T11:29:31;14.13;;;5.38;;
76576;SDS011;65441;44.748;37.600;2023-01-24T11:32:04;15.50;;;5.43;;
76576;SDS011;65441;44.748;37.600;2023-01-24T11:34:50;16.25;;;5.40;;
76576;SDS011;65441;44.748;37.600;2023-01-24T11:37:41;15.52;;;5.30;;
76576;SDS011;65441;44.748;37.600;2023-01-24T11:40:29;13.98;;;5.72;;
76576;SDS011;65441;44.748;37.600;2023-01-24T11:43:14;24.05;;;10.30;;
76576;SDS011;65441;44.748;37.600;2023-01-24T11:45:55;15.38;;;5.55;;
76576;SDS011;65441;44.748;37.600;2023-01-24T11:48:41;13.27;;;5.38;;
76576;SDS011;65441;44.748;37.600;2023-01-24T11:51:17;18.58;;;6.38;;
76576;SDS011;65441;44.748;37.600;2023-01-24T11:53:57;41.63;;;27.08;;
76576;SDS011;65441;44.748;37.600;2023-01-24T11:56:36;16.30;;;5.30;;
76576;SDS011;65441;44.748;37.600;2023-01-24T11:59:21;14.73;;;6.25;;
76576;SDS011;65441;44.748;37.600;2023-01-24T12:02:10;17.10;;;6.07;;
76576;SDS011;65441;44.748;37.600;2023-01-24T12:05:14;15.05;;;5.93;;
76576;SDS011;65441;44.748;37.600;2023-01-24T12:10:57;12.07;;;5.10;;
76576;SDS011;65441;44.748;37.600;2023-01-24T12:13:32;15.93;;;5.38;;
76576;SDS011;65441;44.748;37.600;2023-01-24T12:16:12;15.85;;;5.60;;
76576;SDS011;65441;44.748;37.600;2023-01-24T12:18:58;16.10;;;6.07;;
76576;SDS011;65441;44.748;37.600;2023-01-24T12:21:35;15.35;;;5.55;;
76576;SDS011;65441;44.748;37.600;2023-01-24T12:24:05;19.58;;;7.70;;
76576;SDS011;65441;44.748;37.600;2023-01-24T12:26:41;14.60;;;5.53;;
76576;SDS011;65441;44.748;37.600;2023-01-24T12:29:14;22.77;;;10.40;;
76576;SDS011;65441;44.748;37.600;2023-01-24T12:31:49;16.45;;;7.07;;
76576;SDS011;65441;44.748;37.600;2023-01-24T12:34:27;13.00;;;4.82;;
76576;SDS011;65441;44.748;37.600;2023-01-24T12:37:04;24.77;;;9.65;;
76576;SDS011;65441;44.748;37.600;2023-01-24T12:39:39;19.02;;;6.05;;
76576;SDS011;65441;44.748;37.600;2023-01-24T12:42:14;21.58;;;6.40;;
76576;SDS011;65441;44.748;37.600;2023-01-24T12:44:47;19.38;;;6.32;;
76576;SDS011;65441;44.748;37.600;2023-01-24T12:47:24;17.85;;;5.75;;
76576;SDS011;65441;44.748;37.600;2023-01-24T12:50:07;12.52;;;5.07;;
76576;SDS011;65441;44.748;37.600;2023-01-24T12:52:46;14.85;;;6.47;;
76576;SDS011;65441;44.748;37.600;2023-01-24T12:55:23;14.48;;;5.72;;
76576;SDS011;65441;44.748;37.600;2023-01-24T12:57:56;14.77;;;5.53;;
76576;SDS011;65441;44.748;37.600;2023-01-24T13:00:31;22.42;;;6.30;;
76576;SDS011;65441;44.748;37.600;2023-01-24T13:03:34;17.88;;;6.65;;
76576;SDS011;65441;44.748;37.600;2023-01-24T13:06:19;15.40;;;5.90;;
76576;SDS011;65441;44.748;37.600;2023-01-24T13:08:58;14.32;;;5.20;;
76576;SDS011;65441;44.748;37.600;2023-01-24T13:11:37;18.58;;;6.13;;
76576;SDS011;65441;44.748;37.600;2023-01-24T13:14:13;20.77;;;6.65;;
76576;SDS011;65441;44.748;37.600;2023-01-24T13:17:02;18.98;;;6.45;;
76576;SDS011;65441;44.748;37.600;2023-01-24T13:19:50;18.95;;;6.28;;
76576;SDS011;65441;44.748;37.600;2023-01-24T13:22:31;16.80;;;6.15;;
76576;SDS011;65441;44.748;37.600;2023-01-24T13:25:18;17.52;;;6.47;;
76576;SDS011;65441;44.748;37.600;2023-01-24T13:28:02;17.23;;;6.35;;
76576;SDS011;65441;44.748;37.600;2023-01-24T13:30:37;16.92;;;6.43;;
76576;SDS011;65441;44.748;37.600;2023-01-24T13:33:15;15.20;;;5.78;;
76576;SDS011;65441;44.748;37.600;2023-01-24T13:35:49;17.13;;;5.93;;
76576;SDS011;65441;44.748;37.600;2023-01-24T13:38:21;18.63;;;6.38;;
76576;SDS011;65441;44.748;37.600;2023-01-24T13:40:56;20.00;;;6.75;;
76576;SDS011;65441;44.748;37.600;2023-01-24T13:52:37;20.95;;;7.28;;
76576;SDS011;65441;44.748;37.600;2023-01-24T13:58:25;20.65;;;6.28;;
76576;SDS011;65441;44.748;37.600;2023-01-24T14:00:56;17.05;;;6.70;;
76576;SDS011;65441;44.748;37.600;2023-01-24T14:03:31;23.27;;;8.23;;
76576;SDS011;65441;44.748;37.600;2023-01-24T14:06:07;18.40;;;6.93;;
76576;SDS011;65441;44.748;37.600;2023-01-24T14:08:47;16.35;;;5.90;;
76576;SDS011;65441;44.748;37.600;2023-01-24T14:19:54;16.42;;;6.55;;
76576;SDS011;65441;44.748;37.600;2023-01-24T14:22:36;18.42;;;6.20;;
76576;SDS011;65441;44.748;37.600;2023-01-24T14:28:02;16.25;;;6.43;;
76576;SDS011;65441;44.748;37.600;2023-01-24T14:30:41;17.45;;;6.43;;
76576;SDS011;65441;44.748;37.600;2023-01-24T14:33:26;17.27;;;7.18;;
76576;SDS011;65441;44.748;37.600;2023-01-24T14:36:01;14.68;;;5.78;;
76576;SDS011;65441;44.748;37.600;2023-01-24T14:38:36;15.57;;;6.15;;
76576;SDS011;65441;44.748;37.600;2023-01-24T14:41:10;20.35;;;7.28;;
76576;SDS011;65441;44.748;37.600;2023-01-24T14:43:48;17.70;;;7.30;;
76576;SDS011;65441;44.748;37.600;2023-01-24T14:46:20;18.13;;;5.93;;
76576;SDS011;65441;44.748;37.600;2023-01-24T14:48:50;18.95;;;6.45;;
76576;SDS011;65441;44.748;37.600;2023-01-24T14:51:21;18.02;;;6.10;;
76576;SDS011;65441;44.748;37.600;2023-01-24T14:53:52;16.60;;;5.88;;
76576;SDS011;65441;44.748;37.600;2023-01-24T14:56:23;24.52;;;7.00;;
76576;SDS011;65441;44.748;37.600;2023-01-24T14:58:52;19.83;;;5.88;;
76576;SDS011;65441;44.748;37.600;2023-01-24T15:01:22;18.23;;;6.60;;
76576;SDS011;65441;44.748;37.600;2023-01-24T15:03:54;22.25;;;6.65;;
76576;SDS011;65441;44.748;37.600;2023-01-24T15:06:23;21.73;;;6.55;;
76576;SDS011;65441;44.748;37.600;2023-01-24T15:08:56;20.63;;;7.50;;
76576;SDS011;65441;44.748;37.600;2023-01-24T15:11:30;18.10;;;7.50;;
76576;SDS011;65441;44.748;37.600;2023-01-24T15:14:03;17.48;;;6.65;;
76576;SDS011;65441;44.748;37.600;2023-01-24T15:16:37;22.23;;;7.13;;
76576;SDS011;65441;44.748;37.600;2023-01-24T15:19:14;20.17;;;6.78;;
76576;SDS011;65441;44.748;37.600;2023-01-24T15:21:48;18.50;;;6.47;;
76576;SDS011;65441;44.748;37.600;2023-01-24T15:24:20;16.65;;;6.15;;
76576;SDS011;65441;44.748;37.600;2023-01-24T15:26:54;19.85;;;6.65;;
76576;SDS011;65441;44.748;37.600;2023-01-24T15:35:20;17.40;;;6.15;;
76576;SDS011;65441;44.748;37.600;2023-01-24T15:38:00;20.38;;;7.57;;
76576;SDS011;65441;44.748;37.600;2023-01-24T15:40:47;17.23;;;7.15;;
76576;SDS011;65441;44.748;37.600;2023-01-24T15:43:24;19.52;;;6.90;;
76576;SDS011;65441;44.748;37.600;2023-01-24T15:46:14;17.52;;;7.20;;
76576;SDS011;65441;44.748;37.600;2023-01-24T15:49:16;18.73;;;6.43;;
76576;SDS011;65441;44.748;37.600;2023-01-24T15:51:58;19.98;;;6.97;;
76576;SDS011;65441;44.748;37.600;2023-01-24T15:54:30;20.52;;;7.40;;
76576;SDS011;65441;44.748;37.600;2023-01-24T15:57:00;20.42;;;7.60;;
76576;SDS011;65441;44.748;37.600;2023-01-24T15:59:33;20.02;;;7.80;;
76576;SDS011;65441;44.748;37.600;2023-01-24T16:02:09;19.17;;;6.85;;
76576;SDS011;65441;44.748;37.600;2023-01-24T16:04:40;17.40;;;6.35;;
76576;SDS011;65441;44.748;37.600;2023-01-24T16:07:09;19.55;;;7.25;;
76576;SDS011;65441;44.748;37.600;2023-01-24T16:09:38;31.40;;;8.73;;
76576;SDS011;65441;44.748;37.600;2023-01-24T16:12:09;25.70;;;8.35;;
76576;SDS011;65441;44.748;37.600;2023-01-24T16:14:46;19.85;;;7.85;;
76576;SDS011;65441;44.748;37.600;2023-01-24T16:17:23;19.55;;;8.07;;
76576;SDS011;65441;44.748;37.600;2023-01-24T16:19:56;20.75;;;8.15;;